Time;durP1;ratioP1;P1;durP2;ratioP2;P2;SDS_P1;SDS_P2;PMS_P1;PMS_P2;Temp;Humidity;BMP_temperature;BMP_pressure;BME280_temperature;BME280_humidity;BME280_pressure;Samples;Min_cycle;Max_cycle;Signal;HPM_P1;HPM_P2
2021/08/15 00:00:09;;;;;;;16.43;9.90;;;16.20;99.90;;;;;;4997945;28;20606;-81
2021/08/15 00:02:35;;;;;;;17.13;9.43;;;16.20;99.90;;;;;;4996126;28;20231;-81
2021/08/15 00:05:01;;;;;;;16.63;10.40;;;16.20;99.90;;;;;;4996466;28;20180;-81
2021/08/15 00:07:26;;;;;;;17.30;9.93;;;16.10;99.90;;;;;;4996685;28;20631;-81
2021/08/15 00:09:52;;;;;;;14.23;9.43;;;16.10;99.90;;;;;;4994919;28;20263;-81
2021/08/15 00:12:17;;;;;;;18.30;10.27;;;16.10;99.90;;;;;;4995863;28;20554;-82
2021/08/15 00:14:43;;;;;;;18.50;10.63;;;16.00;99.90;;;;;;4995563;28;20180;-81
2021/08/15 00:17:09;;;;;;;22.97;11.03;;;16.00;99.90;;;;;;4995834;28;20387;-81
2021/08/15 00:19:34;;;;;;;18.93;10.83;;;16.00;99.90;;;;;;4995584;28;20185;-81
2021/08/15 00:22:00;;;;;;;18.80;10.67;;;16.00;99.90;;;;;;4995137;28;20187;-81
2021/08/15 00:24:26;;;;;;;19.00;10.50;;;16.00;99.90;;;;;;4995330;28;20226;-81
2021/08/15 00:26:52;;;;;;;17.73;11.00;;;15.90;99.90;;;;;;4995561;28;20275;-81
2021/08/15 00:29:17;;;;;;;18.47;11.07;;;16.00;99.90;;;;;;4995052;28;20196;-81
2021/08/15 00:31:43;;;;;;;20.97;11.33;;;15.90;99.90;;;;;;4995028;28;20204;-81
2021/08/15 00:34:08;;;;;;;18.33;10.63;;;15.90;99.90;;;;;;4994797;28;20277;-81
2021/08/15 00:36:34;;;;;;;18.20;10.40;;;15.90;99.90;;;;;;4995189;28;20211;-81
2021/08/15 00:38:59;;;;;;;17.83;10.87;;;15.90;99.90;;;;;;4995450;28;20212;-81
2021/08/15 00:41:25;;;;;;;16.63;10.63;;;15.90;99.90;;;;;;4996178;28;20211;-81
2021/08/15 00:43:51;;;;;;;19.80;10.97;;;15.90;99.90;;;;;;4996037;28;20192;-81
2021/08/15 00:46:16;;;;;;;17.03;11.73;;;15.90;99.90;;;;;;5003415;28;20631;-81
2021/08/15 00:48:42;;;;;;;19.63;11.40;;;16.00;99.90;;;;;;4998866;28;20180;-81
2021/08/15 00:51:08;;;;;;;23.37;10.97;;;15.90;99.90;;;;;;4998085;28;20204;-81
2021/08/15 00:53:38;;;;;;;22.90;11.10;;;15.90;99.90;;;;;;4996790;28;20216;-82
2021/08/15 00:56:04;;;;;;;20.97;11.30;;;15.90;99.90;;;;;;4997364;28;20636;-81
2021/08/15 00:58:31;;;;;;;20.27;11.50;;;15.80;99.90;;;;;;4996758;28;20230;-81
2021/08/15 01:01:03;;;;;;;16.07;11.03;;;15.80;99.90;;;;;;4996372;28;20271;-82
2021/08/15 01:03:30;;;;;;;17.83;10.87;;;15.80;99.90;;;;;;4995712;28;20200;-81
2021/08/15 01:05:55;;;;;;;18.87;11.30;;;15.70;99.90;;;;;;4995619;28;20211;-81
2021/08/15 01:08:21;;;;;;;19.87;11.13;;;15.70;99.90;;;;;;4995221;28;20532;-81
2021/08/15 01:10:47;;;;;;;19.93;11.50;;;15.80;99.90;;;;;;4994848;28;20228;-81
2021/08/15 01:13:12;;;;;;;21.00;10.60;;;15.70;99.90;;;;;;4994685;28;20235;-81
2021/08/15 01:15:41;;;;;;;20.00;11.90;;;15.70;99.90;;;;;;4995237;28;20698;-81
2021/08/15 01:18:19;;;;;;;17.93;10.67;;;15.70;99.90;;;;;;4995780;28;20172;-81
2021/08/15 01:20:45;;;;;;;22.07;12.63;;;15.70;99.90;;;;;;4995449;28;20183;-81
2021/08/15 01:23:10;;;;;;;19.13;11.53;;;15.70;99.90;;;;;;4995292;28;20238;-81
2021/08/15 01:25:36;;;;;;;19.43;11.77;;;15.70;99.90;;;;;;4994731;28;20184;-81
2021/08/15 01:28:02;;;;;;;17.60;11.57;;;15.70;99.90;;;;;;4979141;28;20194;-81
2021/08/15 01:30:27;;;;;;;18.67;12.03;;;15.60;99.90;;;;;;4994065;28;20583;-81
2021/08/15 01:32:53;;;;;;;19.07;11.57;;;15.70;99.90;;;;;;4993459;28;20670;-80
2021/08/15 01:35:19;;;;;;;18.07;11.50;;;15.60;99.90;;;;;;4994190;28;20592;-81
2021/08/15 01:37:44;;;;;;;19.57;11.57;;;15.60;99.90;;;;;;4994353;28;20228;-81
2021/08/15 01:40:10;;;;;;;21.87;11.70;;;15.60;99.90;;;;;;4994591;28;20180;-81
2021/08/15 01:42:35;;;;;;;20.17;11.30;;;15.60;99.90;;;;;;4994977;28;20247;-81
2021/08/15 01:45:07;;;;;;;20.40;11.20;;;15.60;99.90;;;;;;4994290;28;20242;-81
2021/08/15 01:47:32;;;;;;;21.80;12.40;;;15.60;99.90;;;;;;4998679;28;20172;-81
2021/08/15 01:49:58;;;;;;;19.03;12.07;;;15.60;99.90;;;;;;4994041;28;20211;-81
2021/08/15 01:52:23;;;;;;;19.33;11.67;;;15.60;99.90;;;;;;4994240;28;20282;-82
2021/08/15 01:54:49;;;;;;;17.83;10.97;;;15.50;99.90;;;;;;4994864;28;20180;-81
2021/08/15 01:57:14;;;;;;;21.67;11.93;;;15.50;99.90;;;;;;4994661;28;20187;-82
2021/08/15 01:59:40;;;;;;;16.40;10.57;;;15.50;99.90;;;;;;4994242;28;20671;-81
2021/08/15 02:02:06;;;;;;;17.37;10.57;;;15.60;99.90;;;;;;4994807;28;20183;-81
2021/08/15 02:04:32;;;;;;;19.60;10.90;;;15.50;99.90;;;;;;4994198;28;20403;-81
2021/08/15 02:06:57;;;;;;;22.30;11.70;;;15.50;99.90;;;;;;4993860;28;20182;-81
2021/08/15 02:09:23;;;;;;;22.87;11.40;;;15.40;99.90;;;;;;4993382;28;20204;-81
2021/08/15 02:11:48;;;;;;;19.53;11.50;;;15.40;99.90;;;;;;4995483;28;20266;-81
2021/08/15 02:14:14;;;;;;;19.13;11.70;;;15.40;99.90;;;;;;4996143;28;20200;-81
2021/08/15 02:16:39;;;;;;;20.00;11.63;;;15.40;99.90;;;;;;4995801;28;20198;-81
2021/08/15 02:19:05;;;;;;;20.57;11.43;;;15.30;99.90;;;;;;4995202;28;20213;-81
2021/08/15 02:21:30;;;;;;;19.10;10.67;;;15.30;99.90;;;;;;4995762;28;20243;-81
2021/08/15 02:23:56;;;;;;;16.20;11.10;;;15.30;99.90;;;;;;4995403;28;20192;-81
2021/08/15 02:26:22;;;;;;;17.53;11.50;;;15.30;99.90;;;;;;4994486;28;20460;-82
2021/08/15 02:28:47;;;;;;;19.17;12.03;;;15.20;99.90;;;;;;4993666;28;20263;-81
2021/08/15 02:31:13;;;;;;;18.07;11.63;;;15.20;99.90;;;;;;4994416;28;20204;-81
2021/08/15 02:33:39;;;;;;;20.60;12.37;;;15.20;99.90;;;;;;4996385;28;20203;-81
2021/08/15 02:36:04;;;;;;;18.73;11.40;;;15.20;99.90;;;;;;4998482;28;20212;-81
2021/08/15 02:38:30;;;;;;;18.60;11.47;;;15.20;99.90;;;;;;4998263;28;20663;-81
2021/08/15 02:40:55;;;;;;;18.73;11.17;;;15.20;99.90;;;;;;4997162;28;20560;-81
2021/08/15 02:43:21;;;;;;;16.93;11.33;;;15.10;99.90;;;;;;4997314;28;20200;-81
2021/08/15 02:45:46;;;;;;;19.17;11.80;;;15.10;99.90;;;;;;4997286;28;20176;-81
2021/08/15 02:48:12;;;;;;;19.27;11.70;;;15.10;99.90;;;;;;4997251;28;20188;-81
2021/08/15 02:50:38;;;;;;;17.83;12.27;;;15.10;99.90;;;;;;4996489;28;20203;-81
2021/08/15 02:53:03;;;;;;;19.80;12.63;;;15.20;99.90;;;;;;4997011;28;20637;-81
2021/08/15 02:55:29;;;;;;;20.90;12.20;;;15.10;99.90;;;;;;4997080;28;20522;-81
2021/08/15 02:57:54;;;;;;;18.33;11.90;;;15.10;99.90;;;;;;4997040;28;20657;-81
2021/08/15 03:00:20;;;;;;;19.27;12.43;;;15.10;99.90;;;;;;4996895;28;20190;-81
2021/08/15 03:02:45;;;;;;;20.83;13.20;;;15.10;99.90;;;;;;4996828;28;20204;-81
2021/08/15 03:05:11;;;;;;;21.13;13.10;;;15.10;99.90;;;;;;4996940;28;20191;-81
2021/08/15 03:07:37;;;;;;;22.03;14.00;;;15.10;99.90;;;;;;4997116;28;20554;-81
2021/08/15 03:10:03;;;;;;;21.67;12.20;;;15.10;99.90;;;;;;4996827;28;20640;-81
2021/08/15 03:12:29;;;;;;;19.03;12.93;;;15.20;99.90;;;;;;4996777;28;20184;-82
2021/08/15 03:14:54;;;;;;;21.83;13.80;;;15.20;99.90;;;;;;4999936;28;20183;-81
2021/08/15 03:17:20;;;;;;;21.07;13.73;;;15.20;99.90;;;;;;5004289;28;20233;-81
2021/08/15 03:19:46;;;;;;;18.17;13.17;;;15.30;99.90;;;;;;5000762;28;20270;-81
2021/08/15 03:22:11;;;;;;;21.53;12.83;;;15.20;99.90;;;;;;5000151;28;20188;-81
2021/08/15 03:24:37;;;;;;;23.03;12.93;;;15.10;99.90;;;;;;5000450;28;20200;-81
2021/08/15 03:27:03;;;;;;;19.27;12.97;;;15.10;99.90;;;;;;4999170;28;20658;-82
2021/08/15 03:29:28;;;;;;;22.20;14.43;;;15.10;99.90;;;;;;4998276;28;20200;-81
2021/08/15 03:31:54;;;;;;;24.33;13.80;;;15.10;99.90;;;;;;4982111;28;20706;-81
2021/08/15 03:34:20;;;;;;;24.40;13.77;;;15.10;99.90;;;;;;4980954;28;20672;-81
2021/08/15 03:36:46;;;;;;;19.30;13.93;;;15.00;99.90;;;;;;4997784;28;20207;-81
2021/08/15 03:39:12;;;;;;;23.20;15.17;;;15.10;99.90;;;;;;4997096;28;20180;-81
2021/08/15 03:41:37;;;;;;;21.47;14.40;;;15.00;99.90;;;;;;4997424;28;20234;-81
2021/08/15 03:44:03;;;;;;;20.13;13.20;;;15.10;99.90;;;;;;4998986;28;20197;-81
2021/08/15 03:46:29;;;;;;;22.40;13.80;;;15.00;99.90;;;;;;4997723;28;20185;-81
2021/08/15 03:48:54;;;;;;;18.23;13.13;;;15.00;99.90;;;;;;4983541;28;20208;-82
2021/08/15 03:51:20;;;;;;;19.10;14.07;;;15.00;99.90;;;;;;4977869;28;20208;-81
2021/08/15 03:53:46;;;;;;;18.23;13.00;;;15.00;99.90;;;;;;4945525;28;20216;-81
2021/08/15 03:56:11;;;;;;;24.03;13.17;;;15.00;99.90;;;;;;4961213;28;20181;-81
2021/08/15 03:58:37;;;;;;;20.77;13.63;;;15.00;99.90;;;;;;4947851;28;20177;-80
2021/08/15 04:01:02;;;;;;;20.47;14.20;;;15.10;99.90;;;;;;4947848;28;20181;-81
2021/08/15 04:03:28;;;;;;;23.33;14.50;;;15.00;99.90;;;;;;4963612;28;20236;-80
2021/08/15 04:05:56;;;;;;;24.97;14.47;;;15.10;99.90;;;;;;4947210;28;20252;-81
2021/08/15 04:08:22;;;;;;;23.00;14.60;;;15.10;99.90;;;;;;4947859;28;20184;-80
2021/08/15 04:10:47;;;;;;;23.37;15.97;;;15.10;99.90;;;;;;4946428;28;20205;-81
2021/08/15 04:13:13;;;;;;;21.77;15.47;;;15.00;99.90;;;;;;4961942;28;20213;-81
2021/08/15 04:15:38;;;;;;;24.13;16.73;;;14.90;99.90;;;;;;4946067;28;20177;-81
2021/08/15 04:18:04;;;;;;;27.50;17.60;;;14.90;99.90;;;;;;4963186;28;20255;-81
2021/08/15 04:20:30;;;;;;;25.73;16.67;;;14.90;99.90;;;;;;4963325;28;20208;-81
2021/08/15 04:22:55;;;;;;;27.77;17.37;;;14.80;99.90;;;;;;4947311;28;20712;-80
2021/08/15 04:25:21;;;;;;;28.60;17.73;;;14.80;99.90;;;;;;4947172;28;20617;-81
2021/08/15 04:27:46;;;;;;;25.30;18.13;;;14.90;99.90;;;;;;4947424;28;20562;-81
2021/08/15 04:30:12;;;;;;;27.20;18.23;;;14.80;99.90;;;;;;4946365;28;20570;-80
2021/08/15 04:32:38;;;;;;;28.17;18.40;;;14.80;99.90;;;;;;4947286;28;20263;-80
2021/08/15 04:35:04;;;;;;;27.37;17.67;;;14.80;99.90;;;;;;4946676;28;20180;-80
2021/08/15 04:37:30;;;;;;;29.93;18.90;;;14.80;99.90;;;;;;4946812;28;20211;-80
2021/08/15 04:39:55;;;;;;;31.40;18.43;;;14.90;99.90;;;;;;4946486;28;20205;-80
2021/08/15 04:42:21;;;;;;;26.73;19.00;;;14.80;99.90;;;;;;4946650;28;20181;-81
2021/08/15 04:44:47;;;;;;;29.23;18.83;;;14.80;99.90;;;;;;4946823;28;20200;-81
2021/08/15 04:47:12;;;;;;;27.60;18.73;;;14.90;99.90;;;;;;4977725;28;20200;-81
2021/08/15 04:49:38;;;;;;;30.27;19.43;;;14.90;99.90;;;;;;4944716;28;20197;-80
2021/08/15 04:52:04;;;;;;;28.73;19.33;;;14.90;99.90;;;;;;4961442;28;20173;-81
2021/08/15 04:54:29;;;;;;;28.73;19.10;;;14.90;99.90;;;;;;4960292;28;20207;-81
2021/08/15 04:56:55;;;;;;;25.10;17.67;;;14.90;99.90;;;;;;4943964;28;20173;-81
2021/08/15 04:59:21;;;;;;;26.90;18.73;;;14.90;99.90;;;;;;4946141;28;20177;-81
2021/08/15 05:01:46;;;;;;;29.23;19.50;;;14.90;99.90;;;;;;4946117;28;20188;-81
2021/08/15 05:04:12;;;;;;;29.50;18.77;;;14.90;99.90;;;;;;4961775;28;20280;-80
2021/08/15 05:06:37;;;;;;;28.33;18.30;;;14.90;99.90;;;;;;4945863;28;20181;-81
2021/08/15 05:09:03;;;;;;;32.10;19.50;;;15.00;99.90;;;;;;4962111;28;20664;-81
2021/08/15 05:11:29;;;;;;;28.83;19.30;;;15.00;99.90;;;;;;4945492;28;20612;-81
2021/08/15 05:13:54;;;;;;;33.00;19.50;;;15.00;99.90;;;;;;4944148;28;20197;-80
2021/08/15 05:16:20;;;;;;;33.30;20.23;;;15.10;99.90;;;;;;4962508;28;20231;-81
2021/08/15 05:18:45;;;;;;;31.80;20.23;;;15.10;99.90;;;;;;4963202;28;20185;-81
2021/08/15 05:21:11;;;;;;;29.10;19.70;;;15.10;99.90;;;;;;4948407;28;20279;-81
2021/08/15 05:23:36;;;;;;;28.73;19.37;;;15.20;99.90;;;;;;4947071;28;20215;-80
2021/08/15 05:26:02;;;;;;;30.83;20.10;;;15.30;99.90;;;;;;4961542;28;20644;-81
2021/08/15 05:28:28;;;;;;;28.87;19.57;;;15.50;99.90;;;;;;4962616;28;20260;-81
2021/08/15 05:30:53;;;;;;;31.23;20.20;;;15.60;99.90;;;;;;4963153;28;20208;-81
2021/08/15 05:33:19;;;;;;;28.90;20.40;;;15.70;99.90;;;;;;4963544;28;20256;-80
2021/08/15 05:35:44;;;;;;;31.80;19.77;;;15.80;99.90;;;;;;4961924;28;20202;-80
2021/08/15 05:38:10;;;;;;;30.53;20.07;;;16.00;99.90;;;;;;4946338;28;20181;-81
2021/08/15 05:40:35;;;;;;;29.60;18.90;;;16.00;99.90;;;;;;4944782;28;20211;-80
2021/08/15 05:43:01;;;;;;;29.10;20.03;;;16.10;99.90;;;;;;4948021;28;20197;-81
2021/08/15 05:45:26;;;;;;;29.90;20.10;;;16.20;99.90;;;;;;4949853;28;20181;-81
2021/08/15 05:47:52;;;;;;;30.43;19.70;;;16.20;99.90;;;;;;4953130;28;20199;-81
2021/08/15 05:50:18;;;;;;;30.20;19.80;;;16.20;99.90;;;;;;4951438;28;20275;-81
2021/08/15 05:52:43;;;;;;;30.67;19.63;;;16.30;99.90;;;;;;4913496;28;1080231;-79
2021/08/15 05:55:09;;;;;;;28.03;19.27;;;16.30;99.90;;;;;;4966217;28;20180;-81
2021/08/15 05:57:35;;;;;;;28.93;19.63;;;16.40;99.90;;;;;;4966399;28;20184;-81
2021/08/15 06:00:00;;;;;;;29.77;20.27;;;16.60;99.90;;;;;;4949478;28;20601;-81
2021/08/15 06:02:26;;;;;;;27.70;18.80;;;16.80;99.90;;;;;;4965168;28;20192;-80
2021/08/15 06:04:51;;;;;;;26.30;18.33;;;17.10;99.90;;;;;;4965717;28;20588;-81
2021/08/15 06:07:17;;;;;;;27.97;19.40;;;17.30;99.90;;;;;;4963883;28;20417;-81
2021/08/15 06:09:42;;;;;;;26.50;19.17;;;17.20;99.90;;;;;;4951153;28;20200;-80
2021/08/15 06:12:08;;;;;;;26.17;19.27;;;17.20;99.90;;;;;;4950853;28;20208;-81
2021/08/15 06:14:34;;;;;;;26.53;19.43;;;17.20;99.90;;;;;;4967498;28;20224;-80
2021/08/15 06:16:59;;;;;;;27.27;18.73;;;17.10;99.90;;;;;;4951749;28;20398;-81
2021/08/15 06:19:25;;;;;;;26.30;18.23;;;17.10;99.90;;;;;;4950505;28;20819;-81
2021/08/15 06:21:51;;;;;;;28.00;19.70;;;17.00;99.90;;;;;;4950463;28;20173;-81
2021/08/15 06:24:16;;;;;;;28.00;19.20;;;17.10;99.90;;;;;;4950316;28;20197;-81
2021/08/15 06:26:42;;;;;;;27.70;19.20;;;17.10;99.90;;;;;;4970183;28;20181;-81
2021/08/15 06:29:07;;;;;;;30.80;20.03;;;17.10;99.90;;;;;;4968184;28;20189;-80
2021/08/15 06:31:33;;;;;;;28.33;19.43;;;17.10;99.90;;;;;;4967131;28;20344;-81
2021/08/15 06:33:58;;;;;;;30.87;19.87;;;17.10;99.90;;;;;;4994225;28;20200;-80
2021/08/15 06:36:24;;;;;;;30.30;19.13;;;17.10;99.90;;;;;;4986533;28;20200;-82
2021/08/15 06:38:50;;;;;;;30.17;20.17;;;17.20;99.90;;;;;;4988353;28;20527;-83
2021/08/15 06:41:15;;;;;;;32.13;20.20;;;17.30;99.90;;;;;;4988072;28;20208;-82
2021/08/15 06:43:41;;;;;;;27.77;18.80;;;17.40;99.90;;;;;;4985969;28;20204;-82
2021/08/15 06:46:06;;;;;;;28.57;19.57;;;17.50;99.90;;;;;;5002970;28;20199;-83
2021/08/15 06:48:32;;;;;;;26.50;19.13;;;17.60;99.90;;;;;;5003377;28;20192;-83
2021/08/15 06:50:58;;;;;;;28.67;19.40;;;17.80;99.90;;;;;;4988312;28;20303;-83
2021/08/15 06:53:28;;;;;;;26.53;19.20;;;17.90;99.90;;;;;;4986694;28;20200;-83
2021/08/15 06:55:54;;;;;;;29.27;19.93;;;18.00;99.90;;;;;;5002277;28;20176;-83
2021/08/15 06:58:19;;;;;;;28.47;19.47;;;18.10;99.90;;;;;;5001841;28;20240;-83
2021/08/15 07:00:45;;;;;;;29.50;19.20;;;18.20;99.90;;;;;;4984623;28;20176;-85
2021/08/15 07:03:10;;;;;;;27.30;19.00;;;18.30;99.90;;;;;;5000564;28;20204;-84
2021/08/15 07:05:36;;;;;;;28.47;20.03;;;18.30;99.90;;;;;;4982725;28;20631;-82
2021/08/15 07:08:01;;;;;;;30.10;19.80;;;18.30;99.90;;;;;;4981493;28;20183;-81
2021/08/15 07:10:28;;;;;;;28.93;18.33;;;18.30;99.90;;;;;;4981504;28;20208;-83
2021/08/15 07:12:55;;;;;;;31.87;19.60;;;18.40;99.90;;;;;;4981731;28;20602;-79
2021/08/15 07:15:21;;;;;;;28.50;19.77;;;18.50;99.90;;;;;;5000777;28;20716;-82
2021/08/15 07:17:47;;;;;;;28.93;18.80;;;18.60;99.90;;;;;;5001413;28;20184;-81
2021/08/15 07:20:13;;;;;;;27.03;18.90;;;18.60;99.90;;;;;;5005716;28;20299;-81
2021/08/15 07:22:39;;;;;;;29.40;20.17;;;18.60;99.90;;;;;;5018309;28;20214;-79
2021/08/15 07:25:05;;;;;;;28.17;19.53;;;18.60;99.90;;;;;;5010096;28;20176;-81
2021/08/15 07:27:31;;;;;;;29.17;19.20;;;18.60;99.90;;;;;;4997874;28;20184;-80
2021/08/15 07:29:57;;;;;;;26.73;19.13;;;18.80;99.90;;;;;;4996918;28;20250;-83
2021/08/15 07:32:22;;;;;;;30.30;19.77;;;19.40;99.90;;;;;;4994237;28;20256;-80
2021/08/15 07:34:48;;;;;;;27.07;18.47;;;20.00;99.90;;;;;;4997381;28;20177;-80
2021/08/15 07:37:13;;;;;;;29.17;18.27;;;20.40;99.90;;;;;;4984197;28;20180;-80
2021/08/15 07:39:39;;;;;;;25.70;18.07;;;20.90;99.90;;;;;;4993772;28;20734;-80
2021/08/15 07:42:04;;;;;;;29.67;18.20;;;21.30;99.90;;;;;;5000141;28;20176;-80
2021/08/15 07:44:30;;;;;;;26.23;17.57;;;21.60;99.90;;;;;;5000098;28;20223;-80
2021/08/15 07:46:55;;;;;;;25.10;16.33;;;21.80;99.90;;;;;;5006185;28;20198;-80
2021/08/15 07:49:21;;;;;;;21.63;16.00;;;22.10;99.90;;;;;;4996805;28;20179;-80
2021/08/15 07:51:46;;;;;;;22.77;16.10;;;22.20;99.90;;;;;;5016829;28;20179;-78
2021/08/15 07:54:12;;;;;;;24.37;15.80;;;22.10;99.90;;;;;;4997753;28;20230;-81
2021/08/15 07:56:37;;;;;;;23.30;15.83;;;21.90;99.90;;;;;;4999064;28;20672;-82
2021/08/15 07:59:03;;;;;;;21.90;15.37;;;21.70;99.90;;;;;;4979922;28;20549;-81
2021/08/15 08:01:29;;;;;;;26.07;16.60;;;21.90;99.90;;;;;;4979779;28;20266;-80
2021/08/15 08:03:54;;;;;;;22.57;15.30;;;22.10;99.90;;;;;;4980614;28;20204;-80
2021/08/15 08:06:20;;;;;;;26.77;15.43;;;22.30;99.90;;;;;;4980186;28;20648;-80
2021/08/15 08:08:45;;;;;;;20.33;15.10;;;22.40;99.90;;;;;;4976947;28;20560;-79
2021/08/15 08:11:11;;;;;;;22.47;15.00;;;22.40;99.90;;;;;;4977028;28;20287;-79
2021/08/15 08:13:36;;;;;;;22.73;14.97;;;22.40;99.90;;;;;;4976412;28;20574;-80
2021/08/15 08:16:02;;;;;;;21.97;15.47;;;22.20;99.90;;;;;;4996982;28;20708;-79
2021/08/15 08:18:27;;;;;;;21.45;14.48;;;22.20;99.90;;;;;;4978372;28;20668;-79
2021/08/15 08:20:53;;;;;;;20.83;14.40;;;22.10;99.90;;;;;;4961295;28;20672;-79
2021/08/15 08:23:19;;;;;;;23.93;14.83;;;21.90;99.90;;;;;;4961664;28;20570;-79
2021/08/15 08:25:45;;;;;;;20.70;14.70;;;21.90;99.90;;;;;;4977554;28;20204;-79
2021/08/15 08:28:11;;;;;;;20.90;15.00;;;21.80;99.90;;;;;;4977225;28;20208;-79
2021/08/15 08:30:37;;;;;;;18.50;14.50;;;21.90;99.90;;;;;;4960088;28;20212;-79
2021/08/15 08:33:03;;;;;;;23.53;15.23;;;22.10;99.90;;;;;;4976475;28;20193;-79
2021/08/15 08:35:29;;;;;;;21.97;14.90;;;22.20;99.90;;;;;;4961043;28;20626;-79
2021/08/15 08:37:55;;;;;;;20.57;14.23;;;22.30;99.90;;;;;;4976744;28;20547;-79
2021/08/15 08:40:20;;;;;;;18.47;13.23;;;22.40;99.90;;;;;;4976800;28;20185;-79
2021/08/15 08:42:46;;;;;;;20.53;13.13;;;22.70;99.90;;;;;;4961201;28;20232;-79
2021/08/15 08:45:18;;;;;;;18.10;12.17;;;23.10;99.90;;;;;;4979551;28;20176;-79
2021/08/15 08:47:44;;;;;;;16.23;11.67;;;23.50;99.90;;;;;;4980564;28;20176;-79
2021/08/15 08:50:10;;;;;;;15.30;11.40;;;23.80;99.90;;;;;;4980492;28;20219;-79
2021/08/15 08:52:36;;;;;;;18.42;10.88;;;24.10;99.90;;;;;;4979601;28;20219;-79
2021/08/15 08:55:02;;;;;;;15.82;10.52;;;24.30;99.90;;;;;;4996805;28;20203;-79
2021/08/15 08:57:28;;;;;;;17.65;10.90;;;24.50;99.90;;;;;;4996104;28;20184;-79
2021/08/15 08:59:54;;;;;;;17.58;10.68;;;24.60;99.90;;;;;;4979958;28;20215;-79
2021/08/15 09:02:20;;;;;;;15.57;8.82;;;24.80;99.90;;;;;;4979795;28;20192;-79
2021/08/15 09:04:45;;;;;;;15.15;9.27;;;25.00;99.90;;;;;;4980194;28;20208;-79
2021/08/15 09:07:15;;;;;;;14.40;8.75;;;25.10;99.90;;;;;;4980033;28;20180;-79
2021/08/15 09:09:52;;;;;;;17.88;9.88;;;25.10;99.90;;;;;;4979301;28;20212;-79
2021/08/15 09:12:18;;;;;;;13.15;9.23;;;25.00;99.90;;;;;;4980482;28;20617;-79
2021/08/15 09:14:44;;;;;;;15.68;7.80;;;25.00;99.90;;;;;;4980403;28;20223;-79
2021/08/15 09:17:09;;;;;;;13.93;7.20;;;25.10;99.90;;;;;;5012964;28;20176;-79
2021/08/15 09:19:40;;;;;;;9.95;6.43;;;25.10;99.90;;;;;;4995952;28;20177;-79
2021/08/15 09:22:20;;;;;;;13.55;6.57;;;25.10;99.90;;;;;;4996226;28;20231;-79
2021/08/15 09:24:46;;;;;;;13.10;6.68;;;24.80;99.90;;;;;;4996495;28;20168;-79
2021/08/15 09:27:16;;;;;;;11.80;6.03;;;24.60;99.90;;;;;;5012080;28;20175;-79
2021/08/15 09:29:42;;;;;;;15.48;7.28;;;24.60;99.90;;;;;;4995856;28;20260;-79
2021/08/15 09:32:08;;;;;;;13.87;6.17;;;24.50;99.90;;;;;;4978883;28;20211;-79
2021/08/15 09:34:33;;;;;;;10.23;6.07;;;24.40;99.90;;;;;;4994445;28;20199;-79
2021/08/15 09:37:00;;;;;;;11.75;7.07;;;24.50;99.90;;;;;;4995055;28;20562;-79
2021/08/15 09:39:33;;;;;;;11.32;6.45;;;24.60;99.90;;;;;;4978669;28;20652;-79
2021/08/15 09:41:58;;;;;;;11.33;6.50;;;24.60;99.90;;;;;;4979324;28;20771;-79
2021/08/15 09:44:26;;;;;;;14.83;6.60;;;24.60;99.90;;;;;;4995219;28;20519;-79
2021/08/15 09:47:06;;;;;;;13.15;5.57;;;24.70;99.90;;;;;;4996614;28;20644;-79
2021/08/15 09:49:33;;;;;;;14.77;6.20;;;25.10;99.90;;;;;;4998439;28;20631;-79
2021/08/15 09:51:58;;;;;;;12.02;6.30;;;25.30;99.90;;;;;;4998915;28;20179;-80
2021/08/15 09:54:24;;;;;;;13.35;6.43;;;25.60;99.90;;;;;;5015550;28;20196;-79
2021/08/15 09:56:49;;;;;;;13.63;6.70;;;25.70;99.90;;;;;;4999743;28;20190;-79
2021/08/15 09:59:19;;;;;;;11.88;6.70;;;25.80;99.90;;;;;;5004918;28;20180;-80
2021/08/15 10:01:48;;;;;;;8.73;5.60;;;25.90;99.90;;;;;;5005426;28;20242;-80
2021/08/15 10:04:14;;;;;;;10.13;4.93;;;26.00;99.90;;;;;;5006030;28;20201;-80
2021/08/15 10:06:41;;;;;;;11.75;4.72;;;25.80;99.90;;;;;;5021008;28;20182;-80
2021/08/15 10:09:07;;;;;;;10.27;4.70;;;25.70;99.90;;;;;;5021545;28;20176;-80
2021/08/15 10:11:33;;;;;;;8.85;4.70;;;25.60;99.90;;;;;;5019751;28;20626;-80
2021/08/15 10:14:02;;;;;;;10.43;4.45;;;25.40;99.90;;;;;;5020462;28;20188;-80
2021/08/15 10:16:31;;;;;;;6.35;4.05;;;25.30;99.90;;;;;;5005519;28;20179;-80
2021/08/15 10:18:57;;;;;;;8.88;4.25;;;25.10;99.90;;;;;;5021691;28;20199;-80
2021/08/15 10:21:22;;;;;;;8.05;4.18;;;25.10;99.90;;;;;;5003673;28;20179;-80
2021/08/15 10:23:48;;;;;;;9.95;4.22;;;25.10;99.90;;;;;;5003473;28;20243;-80
2021/08/15 10:26:26;;;;;;;7.28;3.63;;;25.30;99.90;;;;;;5003218;28;20211;-79
2021/08/15 10:28:52;;;;;;;8.57;3.90;;;25.50;99.90;;;;;;5019677;28;20180;-79
2021/08/15 10:31:18;;;;;;;10.05;4.18;;;25.70;99.90;;;;;;5004174;28;20211;-79
2021/08/15 10:33:54;;;;;;;7.00;3.78;;;25.90;99.90;;;;;;5019929;28;20191;-80
2021/08/15 10:36:26;;;;;;;10.98;4.40;;;25.90;99.90;;;;;;5020247;28;20168;-80
2021/08/15 10:38:54;;;;;;;8.60;4.13;;;25.80;99.90;;;;;;5021136;28;20195;-79
2021/08/15 10:41:44;;;;;;;10.02;4.28;;;25.80;99.90;;;;;;5004773;28;20176;-78
2021/08/15 10:44:10;;;;;;;8.45;3.92;;;25.80;99.90;;;;;;5023162;28;20211;-79
2021/08/15 10:46:36;;;;;;;9.15;4.32;;;25.80;99.90;;;;;;5005286;28;20176;-80
2021/08/15 10:49:08;;;;;;;10.50;3.83;;;25.80;99.90;;;;;;5004629;28;20179;-80
2021/08/15 10:51:52;;;;;;;11.88;4.50;;;25.70;99.90;;;;;;5021060;28;20208;-80
2021/08/15 10:54:27;;;;;;;7.63;3.78;;;25.40;99.90;;;;;;5020715;28;20706;-80
2021/08/15 10:56:57;;;;;;;7.72;3.95;;;25.50;99.90;;;;;;5022483;28;20179;-80
2021/08/15 10:59:41;;;;;;;8.48;3.63;;;25.60;99.90;;;;;;5022698;28;20194;-80
2021/08/15 11:02:10;;;;;;;11.85;4.35;;;25.70;99.90;;;;;;5023415;28;20171;-80
2021/08/15 11:04:36;;;;;;;9.43;4.05;;;25.60;99.90;;;;;;5025034;28;20209;-80
2021/08/15 11:07:01;;;;;;;7.20;3.58;;;25.60;99.90;;;;;;5009988;28;20199;-79
2021/08/15 11:09:56;;;;;;;6.18;3.42;;;25.50;99.90;;;;;;5006589;28;20184;-80
2021/08/15 11:12:22;;;;;;;6.53;3.63;;;25.60;99.90;;;;;;5022282;28;20258;-80
2021/08/15 11:15:02;;;;;;;11.07;3.58;;;25.70;99.90;;;;;;5021544;28;20680;-80
2021/08/15 11:17:29;;;;;;;7.53;3.47;;;25.70;99.90;;;;;;5023465;28;20167;-80
2021/08/15 11:19:54;;;;;;;9.10;3.53;;;25.80;99.90;;;;;;5006770;28;20734;-80
2021/08/15 11:22:20;;;;;;;4.50;2.97;;;25.90;99.90;;;;;;5005926;28;20242;-80
2021/08/15 11:24:45;;;;;;;8.55;3.40;;;25.90;99.90;;;;;;5022550;28;20183;-80
2021/08/15 11:27:15;;;;;;;6.75;3.47;;;25.90;99.90;;;;;;5023657;28;20183;-79
2021/08/15 11:29:41;;;;;;;7.05;3.40;;;25.90;99.90;;;;;;5021771;28;20663;-80
2021/08/15 11:32:12;;;;;;;7.35;3.08;;;25.90;99.90;;;;;;5022458;28;20168;-79
2021/08/15 11:34:37;;;;;;;5.15;3.38;;;26.00;99.90;;;;;;5006350;28;20218;-79
2021/08/15 11:37:04;;;;;;;5.20;3.33;;;26.10;99.90;;;;;;5023944;28;20168;-80
2021/08/15 11:39:33;;;;;;;6.28;3.30;;;26.00;99.90;;;;;;5006596;28;20175;-80
2021/08/15 11:42:04;;;;;;;8.68;3.65;;;26.00;99.90;;;;;;5022713;28;20243;-80
2021/08/15 11:44:48;;;;;;;8.88;3.38;;;26.10;99.90;;;;;;5006487;28;20196;-78
2021/08/15 11:47:40;;;;;;;5.15;2.63;;;26.10;99.90;;;;;;5023522;28;20625;-79
2021/08/15 11:50:19;;;;;;;5.65;3.13;;;26.30;99.90;;;;;;4964833;28;20221;-82
2021/08/15 11:52:46;;;;;;;4.40;3.00;;;26.40;99.90;;;;;;4962909;28;20676;-83
2021/08/15 11:55:27;;;;;;;5.90;3.30;;;26.50;99.90;;;;;;4978703;28;20169;-81
2021/08/15 11:58:00;;;;;;;7.40;3.35;;;26.40;99.90;;;;;;4975488;28;20743;-80
2021/08/15 12:00:29;;;;;;;6.63;3.45;;;26.30;99.90;;;;;;4961145;28;20181;-80
2021/08/15 12:03:01;;;;;;;13.07;3.60;;;26.40;99.90;;;;;;4977298;28;20582;-81
2021/08/15 12:05:27;;;;;;;7.45;3.50;;;26.60;99.90;;;;;;4977260;28;20264;-81
2021/08/15 12:07:53;;;;;;;6.85;2.90;;;26.60;99.90;;;;;;4979768;28;20200;-80
2021/08/15 12:10:39;;;;;;;6.43;2.83;;;26.70;99.90;;;;;;4996995;28;20227;-81
2021/08/15 12:13:16;;;;;;;8.27;3.05;;;26.70;99.90;;;;;;4980134;28;20661;-80
2021/08/15 12:15:49;;;;;;;8.20;3.38;;;26.60;99.90;;;;;;4995375;28;20507;-81
2021/08/15 12:18:28;;;;;;;10.20;3.13;;;26.70;99.90;;;;;;4979127;28;20160;-81
2021/08/15 12:20:54;;;;;;;7.05;3.15;;;26.70;99.90;;;;;;4984147;28;20603;-80
2021/08/15 12:23:20;;;;;;;7.20;3.75;;;26.80;99.90;;;;;;4986217;28;20204;-82
2021/08/15 12:26:08;;;;;;;9.40;3.70;;;26.80;99.90;;;;;;4982384;28;20656;-81
2021/08/15 12:28:36;;;;;;;5.40;3.10;;;26.70;99.90;;;;;;4993662;28;20174;-83